Natashquan, Canada
Current Conditions -  °F | °C
As of 8:00 PM on Wednesday 22 Oct 2014 (Local Time) from CYNA Reporting Station
Clear Clear  
Wind Chill: 32°   Ceiling: Unl
Heat Index: 32°   Visibility: 9mi
Dew Point: 30°   Wind: 2mph
Humidity: 93%   Direction: 340°NNW
Pressure: 30.48"   Gusts: NA
Location:  50.13°N, 61.8°W
Report Text: CYNA 222300Z AUTO 34002KT 9SM CLR M00/M01 A3048 RMK SLP321
Loading
Personal Weather Stations






























Interactive Weather Map
Tropical Storm Tracking
New forecast layout! Learn more

10-Day Weather Forecast

Advertisements
Track Severe Weather on mobile